Time;durP1;ratioP1;P1;durP2;ratioP2;P2;SDS_P1;SDS_P2;PMS_P1;PMS_P2;Temp;Humidity;BMP_temperature;BMP_pressure;BME280_temperature;BME280_humidity;BME280_pressure;Samples;Min_cycle;Max_cycle;Signal;HPM_P1;HPM_P2
2023/05/13 00:01:28;;;;;;;33.43;24.07;;;;;;;;;;4995557;28;20023;-77
2023/05/13 00:03:54;;;;;;;33.50;25.30;;;;;;;;;;4991271;28;20023;-78
2023/05/13 00:06:20;;;;;;;32.97;26.10;;;;;;;;;;4981889;28;20027;-79
2023/05/13 00:08:46;;;;;;;33.97;27.80;;;;;;;;;;4980065;28;20031;-79
2023/05/13 00:11:12;;;;;;;37.37;27.43;;;;;;;;;;4978409;28;20042;-78
2023/05/13 00:13:38;;;;;;;33.87;26.03;;;;;;;;;;4997220;28;20014;-78
2023/05/13 00:16:04;;;;;;;28.67;23.97;;;;;;;;;;4989069;28;20047;-79
2023/05/13 00:18:31;;;;;;;30.80;23.43;;;;;;;;;;4987727;28;20050;-78
2023/05/13 00:20:57;;;;;;;38.17;26.63;;;;;;;;;;4981432;28;20025;-78
2023/05/13 00:23:25;;;;;;;34.30;26.63;;;;;;;;;;4979792;28;20034;-79
2023/05/13 00:25:51;;;;;;;36.73;26.83;;;;;;;;;;4994192;28;20047;-79
2023/05/13 00:28:18;;;;;;;32.10;23.67;;;;;;;;;;4977028;28;20102;-80
2023/05/13 00:30:44;;;;;;;37.60;25.77;;;;;;;;;;4978903;28;20046;-79
2023/05/13 00:33:11;;;;;;;31.47;23.90;;;;;;;;;;4978065;28;20066;-79
2023/05/13 00:35:37;;;;;;;33.50;24.80;;;;;;;;;;4996540;28;20035;-77
2023/05/13 00:38:03;;;;;;;31.50;24.67;;;;;;;;;;4978088;28;20098;-78
2023/05/13 00:40:29;;;;;;;31.27;24.97;;;;;;;;;;4978639;28;20035;-77
2023/05/13 00:42:55;;;;;;;33.40;22.17;;;;;;;;;;4994288;28;20038;-79
2023/05/13 00:45:21;;;;;;;29.50;24.07;;;;;;;;;;4977753;28;20027;-78
2023/05/13 00:47:49;;;;;;;43.23;26.13;;;;;;;;;;4988945;28;20059;-77
2023/05/13 00:50:15;;;;;;;35.13;25.10;;;;;;;;;;4978020;28;20163;-79
2023/05/13 00:52:42;;;;;;;35.23;25.27;;;;;;;;;;4977904;28;20042;-78
2023/05/13 00:55:11;;;;;;;32.83;23.80;;;;;;;;;;4988048;28;20038;-78
2023/05/13 00:57:39;;;;;;;25.67;21.90;;;;;;;;;;4986191;28;20035;-77
2023/05/13 01:00:06;;;;;;;34.80;24.07;;;;;;;;;;4981168;28;20019;-78
2023/05/13 01:02:49;;;;;;;42.17;27.80;;;;;;;;;;4976953;28;20042;-77
2023/05/13 01:05:21;;;;;;;38.87;29.50;;;;;;;;;;4976978;28;20054;-79
2023/05/13 01:07:59;;;;;;;41.33;28.58;;;;;;;;;;4977082;28;20035;-78
2023/05/13 01:10:31;;;;;;;43.77;30.93;;;;;;;;;;4975861;28;20042;-79
2023/05/13 01:13:02;;;;;;;41.40;29.70;;;;;;;;;;4975374;28;20028;-78
2023/05/13 01:15:31;;;;;;;46.30;32.40;;;;;;;;;;4986166;28;20042;-78
2023/05/13 01:17:57;;;;;;;49.23;32.80;;;;;;;;;;4987820;28;20047;-77
2023/05/13 01:20:24;;;;;;;40.17;30.00;;;;;;;;;;4986981;28;20037;-79
2023/05/13 01:22:50;;;;;;;40.43;28.87;;;;;;;;;;4978757;28;20110;-78
2023/05/13 01:25:18;;;;;;;43.43;28.40;;;;;;;;;;4992258;28;20039;-78
2023/05/13 01:27:44;;;;;;;39.23;29.83;;;;;;;;;;4991861;28;20027;-79
2023/05/13 01:30:11;;;;;;;46.63;31.67;;;;;;;;;;4976293;28;20728;-79
2023/05/13 01:32:38;;;;;;;43.20;28.60;;;;;;;;;;4974308;28;20043;-78
2023/05/13 01:35:05;;;;;;;39.17;28.20;;;;;;;;;;4975497;28;20019;-78
2023/05/13 01:37:31;;;;;;;40.63;27.77;;;;;;;;;;4975739;28;20065;-78
2023/05/13 01:39:57;;;;;;;43.37;31.17;;;;;;;;;;4974405;28;20317;-78
2023/05/13 01:42:23;;;;;;;49.17;32.07;;;;;;;;;;4986049;28;20083;-80
2023/05/13 01:44:51;;;;;;;48.03;32.50;;;;;;;;;;4989630;28;20027;-80
2023/05/13 01:47:17;;;;;;;47.73;33.40;;;;;;;;;;4993722;28;21276;-79
2023/05/13 01:49:43;;;;;;;54.70;33.63;;;;;;;;;;4975082;28;20638;-79
2023/05/13 01:52:09;;;;;;;52.03;34.63;;;;;;;;;;4991544;28;20051;-79
2023/05/13 01:54:35;;;;;;;50.77;33.43;;;;;;;;;;4987030;28;20428;-78
2023/05/13 01:57:02;;;;;;;54.07;33.70;;;;;;;;;;4990532;28;20031;-78
2023/05/13 01:59:28;;;;;;;52.50;31.37;;;;;;;;;;4985445;28;20026;-80
2023/05/13 02:01:54;;;;;;;44.10;31.40;;;;;;;;;;4974946;28;20039;-79
2023/05/13 02:04:20;;;;;;;49.43;33.03;;;;;;;;;;4974476;28;20098;-80
2023/05/13 02:06:47;;;;;;;51.90;34.03;;;;;;;;;;4976246;28;20066;-78
2023/05/13 02:09:13;;;;;;;54.10;31.70;;;;;;;;;;4973832;28;20027;-78
2023/05/13 02:11:39;;;;;;;47.63;29.97;;;;;;;;;;4985462;28;20033;-80
2023/05/13 02:14:05;;;;;;;43.50;31.60;;;;;;;;;;4975844;28;20015;-79
2023/05/13 02:16:32;;;;;;;56.77;34.13;;;;;;;;;;4990308;28;20067;-80
2023/05/13 02:18:58;;;;;;;71.90;41.30;;;;;;;;;;4986745;28;20094;-79
2023/05/13 02:21:24;;;;;;;61.70;38.13;;;;;;;;;;4976324;28;21269;-80
2023/05/13 02:23:50;;;;;;;61.50;38.83;;;;;;;;;;4996333;28;20039;-78
2023/05/13 02:26:16;;;;;;;44.33;32.30;;;;;;;;;;4977981;28;20023;-80
2023/05/13 02:28:48;;;;;;;57.07;36.67;;;;;;;;;;4989566;28;20031;-80
2023/05/13 02:31:14;;;;;;;47.70;34.58;;;;;;;;;;4987636;28;20030;-77
2023/05/13 02:33:40;;;;;;;45.63;32.87;;;;;;;;;;4994438;28;20039;-79
2023/05/13 02:36:06;;;;;;;52.17;36.77;;;;;;;;;;4973760;28;20130;-80
2023/05/13 02:38:33;;;;;;;57.13;35.30;;;;;;;;;;4978439;28;20095;-79
2023/05/13 02:41:00;;;;;;;51.60;34.10;;;;;;;;;;4979072;28;20038;-79
2023/05/13 02:43:26;;;;;;;51.23;32.97;;;;;;;;;;4979746;28;20039;-79
2023/05/13 02:45:53;;;;;;;49.00;33.07;;;;;;;;;;4989772;28;20031;-79
2023/05/13 02:48:19;;;;;;;41.37;31.50;;;;;;;;;;4976589;28;20065;-78
2023/05/13 02:50:45;;;;;;;49.07;32.53;;;;;;;;;;4977551;28;20038;-79
2023/05/13 02:53:11;;;;;;;43.97;32.40;;;;;;;;;;4994101;28;20039;-79
2023/05/13 02:55:37;;;;;;;51.27;34.63;;;;;;;;;;4979266;28;20034;-78
2023/05/13 02:58:03;;;;;;;52.57;34.20;;;;;;;;;;4977752;28;20031;-78
2023/05/13 03:00:29;;;;;;;49.07;34.83;;;;;;;;;;4972377;28;20039;-80
2023/05/13 03:02:56;;;;;;;59.93;38.10;;;;;;;;;;4992659;28;20023;-80
2023/05/13 03:05:24;;;;;;;56.13;36.90;;;;;;;;;;4976003;28;20050;-80
2023/05/13 03:07:50;;;;;;;54.43;34.67;;;;;;;;;;4992255;28;20620;-80
2023/05/13 03:10:17;;;;;;;43.97;33.40;;;;;;;;;;4989130;28;20078;-80
2023/05/13 03:12:45;;;;;;;46.90;31.90;;;;;;;;;;4977989;28;20031;-78
2023/05/13 03:15:12;;;;;;;46.70;31.83;;;;;;;;;;4991898;28;20031;-79
2023/05/13 03:17:38;;;;;;;41.50;30.67;;;;;;;;;;4991789;28;20114;-79
2023/05/13 03:20:04;;;;;;;40.73;30.73;;;;;;;;;;4980784;28;20078;-79
2023/05/13 03:22:31;;;;;;;45.67;32.80;;;;;;;;;;4974672;28;20039;-80
2023/05/13 03:24:57;;;;;;;50.53;34.57;;;;;;;;;;4974007;28;21253;-80
2023/05/13 03:27:23;;;;;;;53.53;35.73;;;;;;;;;;4973770;28;20114;-79
2023/05/13 03:29:49;;;;;;;52.33;37.43;;;;;;;;;;4972877;28;20061;-79
2023/05/13 03:32:15;;;;;;;58.63;37.43;;;;;;;;;;4985766;28;20199;-80
2023/05/13 03:34:41;;;;;;;61.87;38.03;;;;;;;;;;4975533;28;20060;-79
2023/05/13 03:37:08;;;;;;;61.10;38.67;;;;;;;;;;4973169;28;20376;-79
2023/05/13 03:39:35;;;;;;;49.20;35.27;;;;;;;;;;4974802;28;20031;-82
2023/05/13 03:42:01;;;;;;;53.13;36.47;;;;;;;;;;4971199;28;20042;-79
2023/05/13 03:44:27;;;;;;;56.03;36.80;;;;;;;;;;4990136;28;20392;-79
2023/05/13 03:46:53;;;;;;;61.63;38.17;;;;;;;;;;4984858;28;20055;-80
2023/05/13 03:49:22;;;;;;;58.90;38.53;;;;;;;;;;4987614;28;20035;-79
2023/05/13 03:51:48;;;;;;;63.23;38.93;;;;;;;;;;4973977;28;20039;-80
2023/05/13 03:54:14;;;;;;;58.67;37.53;;;;;;;;;;4973329;28;20098;-79
2023/05/13 03:56:40;;;;;;;60.50;38.23;;;;;;;;;;4985992;28;20135;-78
2023/05/13 03:59:06;;;;;;;57.33;36.13;;;;;;;;;;4986419;28;20027;-80
2023/05/13 04:01:32;;;;;;;61.20;40.53;;;;;;;;;;4982554;28;20043;-80
2023/05/13 04:03:59;;;;;;;63.60;40.03;;;;;;;;;;4974158;28;20026;-79
2023/05/13 04:06:25;;;;;;;70.47;41.63;;;;;;;;;;4977473;28;20033;-81
2023/05/13 04:08:51;;;;;;;69.17;42.60;;;;;;;;;;4978071;28;20010;-77
2023/05/13 04:11:17;;;;;;;61.87;40.20;;;;;;;;;;4971763;28;20034;-80
2023/05/13 04:13:44;;;;;;;57.80;38.10;;;;;;;;;;4976575;28;20031;-80
2023/05/13 04:16:10;;;;;;;67.70;42.73;;;;;;;;;;4974856;28;20034;-80
2023/05/13 04:18:37;;;;;;;55.97;38.03;;;;;;;;;;4969217;28;20031;-78
2023/05/13 04:21:10;;;;;;;64.73;39.20;;;;;;;;;;4978567;28;20039;-80
2023/05/13 04:23:36;;;;;;;71.23;43.43;;;;;;;;;;4976875;28;20547;-79
2023/05/13 04:26:02;;;;;;;61.53;38.97;;;;;;;;;;4972364;28;20035;-80
2023/05/13 04:28:28;;;;;;;61.37;40.07;;;;;;;;;;4980879;28;20027;-79
2023/05/13 04:30:54;;;;;;;70.67;44.57;;;;;;;;;;4974975;28;20046;-80
2023/05/13 04:33:20;;;;;;;82.10;48.83;;;;;;;;;;4985951;28;20120;-80
2023/05/13 04:35:46;;;;;;;77.93;46.63;;;;;;;;;;4972747;28;20034;-80
2023/05/13 04:38:13;;;;;;;69.30;43.60;;;;;;;;;;4980217;28;20059;-78
2023/05/13 04:40:39;;;;;;;75.57;47.33;;;;;;;;;;4971915;28;20019;-78
2023/05/13 04:43:05;;;;;;;73.20;46.77;;;;;;;;;;4973509;28;20066;-80
2023/05/13 04:45:31;;;;;;;77.17;48.10;;;;;;;;;;4986898;28;20033;-80
2023/05/13 04:47:57;;;;;;;76.53;49.40;;;;;;;;;;4986340;28;20023;-80
2023/05/13 04:50:23;;;;;;;82.97;49.80;;;;;;;;;;4983226;28;20037;-80
2023/05/13 04:52:49;;;;;;;78.20;48.00;;;;;;;;;;4972796;28;20027;-78
2023/05/13 04:55:16;;;;;;;73.50;48.10;;;;;;;;;;4984682;28;20027;-80
2023/05/13 04:57:44;;;;;;;74.60;47.17;;;;;;;;;;4983092;28;20035;-80
2023/05/13 05:00:11;;;;;;;71.73;47.63;;;;;;;;;;4984964;28;20043;-80
2023/05/13 05:02:37;;;;;;;74.70;48.37;;;;;;;;;;4970228;28;20039;-80
2023/05/13 05:05:04;;;;;;;73.17;48.00;;;;;;;;;;4988847;28;20998;-78
2023/05/13 05:07:30;;;;;;;66.97;46.43;;;;;;;;;;4977434;28;20026;-78
2023/05/13 05:09:56;;;;;;;66.93;45.73;;;;;;;;;;4972688;28;20031;-80
2023/05/13 05:12:22;;;;;;;64.13;43.80;;;;;;;;;;4983461;28;20058;-79
2023/05/13 05:14:48;;;;;;;59.20;41.93;;;;;;;;;;4980491;28;20121;-80
2023/05/13 05:17:17;;;;;;;58.37;41.00;;;;;;;;;;4970413;28;20031;-78
2023/05/13 05:19:43;;;;;;;51.77;38.07;;;;;;;;;;4968514;28;20039;-80
2023/05/13 05:22:09;;;;;;;49.43;37.33;;;;;;;;;;4973468;28;20023;-80
2023/05/13 05:24:35;;;;;;;54.43;37.70;;;;;;;;;;4971726;28;20571;-80
2023/05/13 05:27:02;;;;;;;52.47;38.83;;;;;;;;;;4988358;28;20034;-80
2023/05/13 05:29:28;;;;;;;51.53;38.50;;;;;;;;;;4973721;28;20104;-77
2023/05/13 05:31:54;;;;;;;53.60;38.53;;;;;;;;;;4981694;28;20035;-79
2023/05/13 05:34:20;;;;;;;51.63;39.30;;;;;;;;;;4969551;28;20031;-80
2023/05/13 05:36:46;;;;;;;55.33;37.97;;;;;;;;;;4976077;28;20047;-80
2023/05/13 05:39:12;;;;;;;47.37;36.10;;;;;;;;;;4972043;28;20035;-78
2023/05/13 05:41:38;;;;;;;43.00;32.50;;;;;;;;;;4987362;28;20034;-81
2023/05/13 05:44:04;;;;;;;43.50;34.93;;;;;;;;;;4984838;28;20123;-80
2023/05/13 05:46:30;;;;;;;38.40;31.60;;;;;;;;;;4970657;28;20031;-80
2023/05/13 05:48:56;;;;;;;36.60;30.60;;;;;;;;;;4971973;28;20074;-80
2023/05/13 05:51:26;;;;;;;37.83;31.70;;;;;;;;;;4974953;28;20050;-79
2023/05/13 05:53:52;;;;;;;37.87;33.03;;;;;;;;;;4973285;28;20086;-79
2023/05/13 05:56:21;;;;;;;40.17;32.17;;;;;;;;;;4993125;28;20022;-79
2023/05/13 05:58:47;;;;;;;37.67;28.83;;;;;;;;;;4976929;28;20027;-77
2023/05/13 06:01:13;;;;;;;38.83;29.43;;;;;;;;;;4975606;28;20027;-79
2023/05/13 06:03:39;;;;;;;38.27;28.30;;;;;;;;;;4974169;28;20046;-80
2023/05/13 06:06:05;;;;;;;34.43;28.83;;;;;;;;;;4979136;28;20023;-78
2023/05/13 06:08:34;;;;;;;31.60;27.13;;;;;;;;;;4990528;28;20031;-79
2023/05/13 06:11:00;;;;;;;35.33;28.10;;;;;;;;;;4987493;28;20582;-78
2023/05/13 06:13:26;;;;;;;28.90;24.73;;;;;;;;;;4985116;28;20051;-78
2023/05/13 06:15:52;;;;;;;30.47;23.67;;;;;;;;;;4987456;28;20026;-78
2023/05/13 06:18:18;;;;;;;27.00;22.67;;;;;;;;;;4976126;28;20035;-79
2023/05/13 06:20:44;;;;;;;30.23;22.57;;;;;;;;;;4994219;28;20039;-79
2023/05/13 06:23:11;;;;;;;28.37;21.80;;;;;;;;;;4994061;28;20051;-78
2023/05/13 06:25:39;;;;;;;28.27;22.33;;;;;;;;;;4980437;28;20029;-79
2023/05/13 06:28:07;;;;;;;27.00;21.07;;;;;;;;;;4993777;28;20027;-80
2023/05/13 06:30:33;;;;;;;24.40;19.90;;;;;;;;;;4987961;28;20950;-79
2023/05/13 06:32:59;;;;;;;22.90;19.77;;;;;;;;;;4984191;28;20113;-79
2023/05/13 06:35:25;;;;;;;26.02;19.40;;;;;;;;;;4977101;28;20047;-79
2023/05/13 06:37:51;;;;;;;30.50;21.08;;;;;;;;;;4985378;28;20054;-79
2023/05/13 06:40:17;;;;;;;22.40;17.40;;;;;;;;;;4977034;28;20046;-78
2023/05/13 06:42:43;;;;;;;25.35;19.20;;;;;;;;;;4991486;28;20452;-77
2023/05/13 06:45:12;;;;;;;23.20;18.75;;;;;;;;;;4988338;28;20061;-79
2023/05/13 06:47:38;;;;;;;25.15;17.52;;;;;;;;;;4991464;28;20039;-78
2023/05/13 06:50:08;;;;;;;25.10;18.20;;;;;;;;;;4976938;28;20121;-80
2023/05/13 06:52:34;;;;;;;23.92;17.33;;;;;;;;;;4981200;28;20034;-79
2023/05/13 06:55:01;;;;;;;24.23;16.15;;;;;;;;;;4996019;28;20158;-80
2023/05/13 06:57:27;;;;;;;22.90;16.92;;;;;;;;;;4981627;28;20102;-78
2023/05/13 06:59:53;;;;;;;17.58;13.20;;;;;;;;;;4979515;28;20109;-78
2023/05/13 07:02:19;;;;;;;20.88;14.18;;;;;;;;;;4988429;28;20039;-78
2023/05/13 07:04:45;;;;;;;24.23;15.32;;;;;;;;;;4985970;28;20038;-80
2023/05/13 07:07:11;;;;;;;28.00;17.85;;;;;;;;;;4979909;28;20039;-80
2023/05/13 07:09:37;;;;;;;24.58;16.55;;;;;;;;;;4973857;28;20035;-79
2023/05/13 07:12:03;;;;;;;18.27;10.95;;;;;;;;;;4983179;28;20042;-80
2023/05/13 07:14:29;;;;;;;17.08;10.50;;;;;;;;;;4969852;28;20027;-79
2023/05/13 07:16:57;;;;;;;13.02;10.25;;;;;;;;;;4975701;28;20472;-78
2023/05/13 07:19:23;;;;;;;13.13;9.77;;;;;;;;;;4969518;28;20038;-80
2023/05/13 07:21:49;;;;;;;13.77;10.05;;;;;;;;;;4969796;28;20041;-80
2023/05/13 07:24:15;;;;;;;17.92;14.00;;;;;;;;;;4987288;28;20546;-80
2023/05/13 07:26:41;;;;;;;16.50;11.65;;;;;;;;;;4970696;28;20042;-80
2023/05/13 07:29:07;;;;;;;14.40;11.13;;;;;;;;;;4974192;28;20042;-80
2023/05/13 07:31:33;;;;;;;21.83;12.18;;;;;;;;;;4971214;28;20027;-80
2023/05/13 07:33:59;;;;;;;13.93;10.55;;;;;;;;;;4988297;28;20041;-79
2023/05/13 07:36:28;;;;;;;15.35;9.57;;;;;;;;;;4981485;28;20036;-79
2023/05/13 07:38:57;;;;;;;11.82;10.40;;;;;;;;;;4983892;28;20058;-79
2023/05/13 07:41:23;;;;;;;13.68;8.95;;;;;;;;;;4983708;28;20055;-80
2023/05/13 07:43:49;;;;;;;13.38;9.75;;;;;;;;;;4983816;28;20046;-79
2023/05/13 07:46:15;;;;;;;12.60;10.90;;;;;;;;;;4971763;28;20039;-79
2023/05/13 07:48:41;;;;;;;11.73;6.95;;;;;;;;;;4986063;28;20039;-79
2023/05/13 07:51:07;;;;;;;11.45;7.00;;;;;;;;;;4981065;28;20031;-79
2023/05/13 07:53:34;;;;;;;13.38;7.97;;;;;;;;;;4968203;28;20050;-79
2023/05/13 07:56:00;;;;;;;14.25;8.63;;;;;;;;;;4979178;28;20031;-80
2023/05/13 07:58:26;;;;;;;13.80;7.53;;;;;;;;;;4966760;28;20031;-80
2023/05/13 08:00:52;;;;;;;13.50;8.88;;;;;;;;;;4975987;28;20050;-79
2023/05/13 08:03:18;;;;;;;10.35;6.57;;;;;;;;;;4965378;28;20078;-79
2023/05/13 08:05:53;;;;;;;11.80;7.45;;;;;;;;;;4968427;28;20035;-79
2023/05/13 08:08:19;;;;;;;10.75;7.55;;;;;;;;;;4959916;28;20028;-79
2023/05/13 08:10:45;;;;;;;14.20;6.60;;;;;;;;;;4969676;28;20031;-79
2023/05/13 08:13:11;;;;;;;15.45;6.40;;;;;;;;;;4977352;28;20041;-79
2023/05/13 08:15:37;;;;;;;8.35;6.25;;;;;;;;;;4968299;28;20027;-80
2023/05/13 08:18:04;;;;;;;8.05;5.63;;;;;;;;;;4981645;28;20058;-79
2023/05/13 08:20:30;;;;;;;9.70;6.90;;;;;;;;;;4968964;28;20066;-78
2023/05/13 08:22:57;;;;;;;8.18;5.90;;;;;;;;;;4972943;28;20031;-78
2023/05/13 08:25:23;;;;;;;12.75;6.75;;;;;;;;;;4981909;28;20038;-78
2023/05/13 08:27:48;;;;;;;11.20;6.20;;;;;;;;;;4975662;28;20031;-79
2023/05/13 08:30:15;;;;;;;10.30;6.50;;;;;;;;;;4965419;28;20027;-76
2023/05/13 08:32:41;;;;;;;12.77;5.72;;;;;;;;;;4971639;28;20027;-80
2023/05/13 08:35:07;;;;;;;16.75;6.57;;;;;;;;;;4973377;28;20488;-79
2023/05/13 08:37:33;;;;;;;8.02;5.07;;;;;;;;;;4958292;28;20360;-78
2023/05/13 08:40:00;;;;;;;6.88;5.13;;;;;;;;;;4977311;28;20031;-78
2023/05/13 08:42:28;;;;;;;9.52;5.80;;;;;;;;;;4975422;28;20031;-79
2023/05/13 08:44:54;;;;;;;7.68;5.35;;;;;;;;;;4956958;28;20061;-79
2023/05/13 08:47:32;;;;;;;9.60;4.68;;;;;;;;;;4964061;28;20105;-80
2023/05/13 08:49:58;;;;;;;9.43;5.35;;;;;;;;;;4983139;28;20363;-78
2023/05/13 08:52:25;;;;;;;14.68;7.32;;;;;;;;;;4972894;28;20089;-79
2023/05/13 08:54:51;;;;;;;12.35;8.43;;;;;;;;;;4968209;28;20043;-79
2023/05/13 08:57:16;;;;;;;13.10;7.78;;;;;;;;;;4986262;28;20449;-79
2023/05/13 08:59:46;;;;;;;16.73;8.50;;;;;;;;;;4964565;28;20031;-80
2023/05/13 09:02:12;;;;;;;10.85;7.95;;;;;;;;;;4971925;28;20043;-79
2023/05/13 09:04:40;;;;;;;11.75;7.72;;;;;;;;;;4973235;28;20042;-79
2023/05/13 09:07:06;;;;;;;12.38;7.60;;;;;;;;;;4975721;28;20110;-78
2023/05/13 09:09:32;;;;;;;11.98;7.32;;;;;;;;;;4960398;28;20114;-77
2023/05/13 09:11:58;;;;;;;8.10;7.28;;;;;;;;;;4965876;28;20034;-78
2023/05/13 09:14:33;;;;;;;8.75;6.93;;;;;;;;;;4975460;28;20035;-78
2023/05/13 09:17:00;;;;;;;7.28;6.13;;;;;;;;;;4961912;28;20042;-79
2023/05/13 09:19:26;;;;;;;13.48;6.22;;;;;;;;;;4967054;28;20066;-80
2023/05/13 09:21:53;;;;;;;9.07;6.22;;;;;;;;;;4980494;28;20065;-77
2023/05/13 09:24:20;;;;;;;9.80;7.20;;;;;;;;;;4953339;28;20511;-77
2023/05/13 09:26:47;;;;;;;13.02;6.50;;;;;;;;;;4971854;28;20062;-79
2023/05/13 09:29:23;;;;;;;17.60;6.68;;;;;;;;;;4971551;28;20065;-79
2023/05/13 09:31:51;;;;;;;13.68;7.30;;;;;;;;;;4972020;28;20130;-79
2023/05/13 09:34:29;;;;;;;13.98;6.25;;;;;;;;;;4956750;28;20035;-79
2023/05/13 09:37:02;;;;;;;13.10;6.60;;;;;;;;;;4974502;28;21370;-79
2023/05/13 09:39:29;;;;;;;9.30;6.95;;;;;;;;;;4969759;28;20042;-79
2023/05/13 09:41:55;;;;;;;16.33;7.18;;;;;;;;;;4975810;28;20243;-79
2023/05/13 09:44:21;;;;;;;9.27;7.40;;;;;;;;;;4973851;28;20063;-79
2023/05/13 09:46:47;;;;;;;9.85;6.88;;;;;;;;;;4973466;28;20122;-79
2023/05/13 09:49:17;;;;;;;11.23;7.18;;;;;;;;;;4971296;28;20023;-79
2023/05/13 09:51:44;;;;;;;9.10;7.13;;;;;;;;;;4963544;28;20046;-79
2023/05/13 09:54:11;;;;;;;9.43;7.13;;;;;;;;;;4972640;28;20039;-78
2023/05/13 09:56:37;;;;;;;10.93;7.18;;;;;;;;;;4969598;28;20038;-79
2023/05/13 09:59:03;;;;;;;8.68;6.40;;;;;;;;;;4969985;28;20039;-78
2023/05/13 10:01:29;;;;;;;14.57;8.20;;;;;;;;;;4955524;28;20043;-79
2023/05/13 10:03:57;;;;;;;12.85;9.00;;;;;;;;;;4956625;28;20900;-80
2023/05/13 10:06:24;;;;;;;11.70;8.40;;;;;;;;;;4978492;28;20051;-80
2023/05/13 10:08:51;;;;;;;13.40;8.20;;;;;;;;;;4972665;28;20503;-79
2023/05/13 10:11:18;;;;;;;12.30;7.90;;;;;;;;;;4970988;28;20495;-79
2023/05/13 10:13:49;;;;;;;10.23;7.50;;;;;;;;;;4963098;28;20039;-79
2023/05/13 10:16:17;;;;;;;12.68;7.65;;;;;;;;;;4961696;28;20077;-78
2023/05/13 10:18:43;;;;;;;11.32;7.38;;;;;;;;;;4962610;28;20027;-79
2023/05/13 10:21:09;;;;;;;13.70;8.63;;;;;;;;;;4969970;28;20042;-80
2023/05/13 10:23:36;;;;;;;11.93;8.40;;;;;;;;;;4961423;28;20468;-79
2023/05/13 10:26:02;;;;;;;11.95;8.23;;;;;;;;;;4961788;28;20035;-79
2023/05/13 10:28:28;;;;;;;11.43;8.45;;;;;;;;;;4972347;28;20028;-79
2023/05/13 10:30:54;;;;;;;12.13;9.00;;;;;;;;;;4969005;28;20848;-80
2023/05/13 10:33:21;;;;;;;10.63;9.35;;;;;;;;;;4970738;28;20608;-80
2023/05/13 10:35:54;;;;;;;11.93;8.20;;;;;;;;;;4977835;28;20035;-80
2023/05/13 10:38:23;;;;;;;8.85;7.38;;;;;;;;;;4974630;28;20059;-79
2023/05/13 10:41:08;;;;;;;15.85;8.30;;;;;;;;;;4953873;28;20039;-79
2023/05/13 10:43:35;;;;;;;12.52;7.72;;;;;;;;;;4972354;28;20043;-80
2023/05/13 10:46:02;;;;;;;9.25;6.15;;;;;;;;;;4963116;28;20046;-80
2023/05/13 10:48:38;;;;;;;16.98;7.82;;;;;;;;;;4973358;28;20114;-79
2023/05/13 10:51:06;;;;;;;13.00;7.32;;;;;;;;;;4974887;28;20062;-79
2023/05/13 10:53:36;;;;;;;11.55;7.85;;;;;;;;;;4964800;28;20069;-78
2023/05/13 10:56:06;;;;;;;10.27;8.27;;;;;;;;;;4972729;28;20459;-79
2023/05/13 10:58:35;;;;;;;10.63;8.07;;;;;;;;;;4973926;28;20519;-79
2023/05/13 11:01:15;;;;;;;12.38;8.35;;;;;;;;;;4976853;28;20063;-79
2023/05/13 11:03:41;;;;;;;13.77;8.25;;;;;;;;;;4965247;28;20046;-79
2023/05/13 11:06:14;;;;;;;15.38;7.63;;;;;;;;;;4983566;28;20042;-80
2023/05/13 11:08:45;;;;;;;10.30;7.05;;;;;;;;;;4972924;28;20027;-79
2023/05/13 11:11:23;;;;;;;9.80;7.18;;;;;;;;;;4972078;28;20023;-77
2023/05/13 11:13:52;;;;;;;9.40;6.88;;;;;;;;;;4970701;28;20038;-77
2023/05/13 11:16:18;;;;;;;8.85;6.43;;;;;;;;;;4968415;28;20031;-77
2023/05/13 11:18:44;;;;;;;10.43;6.55;;;;;;;;;;4976162;28;20654;-78
2023/05/13 11:21:10;;;;;;;12.63;7.28;;;;;;;;;;4970103;28;20135;-79
2023/05/13 11:23:53;;;;;;;10.85;5.82;;;;;;;;;;4970735;28;20114;-80
2023/05/13 11:26:20;;;;;;;;;;;;;;;;;;4959616;28;20032;-78
2023/05/13 11:28:56;;;;;;;12.15;5.90;;;;;;;;;;4971496;28;19910;-78
2023/05/13 11:31:22;;;;;;;9.38;5.90;;;;;;;;;;4970623;28;20046;-81
2023/05/13 11:34:10;;;;;;;15.50;6.43;;;;;;;;;;4960566;28;20092;-77
2023/05/13 11:36:37;;;;;;;9.77;5.95;;;;;;;;;;4960088;28;20031;-78
2023/05/13 11:39:17;;;;;;;9.95;6.13;;;;;;;;;;4971912;28;20059;-79
2023/05/13 11:41:45;;;;;;;6.38;4.13;;;;;;;;;;4972841;28;20534;-78
2023/05/13 11:44:12;;;;;;;8.85;3.33;;;;;;;;;;4961300;28;20023;-78
2023/05/13 11:46:38;;;;;;;4.78;2.70;;;;;;;;;;4959894;28;20027;-77
2023/05/13 11:49:04;;;;;;;7.38;2.10;;;;;;;;;;4957043;28;20126;-79
2023/05/13 11:51:30;;;;;;;5.13;2.50;;;;;;;;;;4970099;28;20232;-79
2023/05/13 11:54:00;;;;;;;5.10;2.20;;;;;;;;;;4962540;28;20035;-78
2023/05/13 11:56:30;;;;;;;3.38;2.10;;;;;;;;;;4970850;28;20046;-81
2023/05/13 11:59:13;;;;;;;8.98;2.42;;;;;;;;;;4968781;28;20042;-79
2023/05/13 12:01:39;;;;;;;5.32;1.98;;;;;;;;;;4972727;28;20030;-78
2023/05/13 12:04:06;;;;;;;2.88;1.77;;;;;;;;;;4959218;28;20041;-78
2023/05/13 12:06:32;;;;;;;4.72;2.20;;;;;;;;;;4970091;28;20027;-79
2023/05/13 12:09:04;;;;;;;5.55;2.42;;;;;;;;;;4964765;28;20031;-79
2023/05/13 12:11:30;;;;;;;;;;;;;;;;;;4957664;28;20027;-79
2023/05/13 12:13:56;;;;;;;5.30;1.90;;;;;;;;;;4959422;28;19925;-79
2023/05/13 12:16:23;;;;;;;4.45;2.40;;;;;;;;;;4957586;28;20098;-79
2023/05/13 12:19:07;;;;;;;3.45;2.15;;;;;;;;;;4955579;28;20067;-79
2023/05/13 12:21:34;;;;;;;3.83;2.50;;;;;;;;;;4971852;28;20090;-79
2023/05/13 12:23:59;;;;;;;4.25;2.30;;;;;;;;;;4968224;28;20051;-79
2023/05/13 12:26:26;;;;;;;7.00;2.40;;;;;;;;;;4956451;28;20059;-79
2023/05/13 12:28:58;;;;;;;7.97;2.35;;;;;;;;;;4959053;28;20031;-79
2023/05/13 12:31:25;;;;;;;5.30;2.20;;;;;;;;;;4954972;28;20034;-78
2023/05/13 12:33:51;;;;;;;3.33;1.98;;;;;;;;;;4956709;28;20036;-78
2023/05/13 12:36:20;;;;;;;5.18;2.22;;;;;;;;;;4967082;28;20034;-79
2023/05/13 12:39:04;;;;;;;5.45;2.00;;;;;;;;;;4973318;28;20035;-79
2023/05/13 12:41:30;;;;;;;7.38;2.30;;;;;;;;;;4971662;28;20050;-78
2023/05/13 12:44:00;;;;;;;3.53;2.10;;;;;;;;;;4968723;28;20450;-79
2023/05/13 12:46:27;;;;;;;3.85;2.17;;;;;;;;;;4968524;28;20038;-79
2023/05/13 12:48:57;;;;;;;10.63;3.00;;;;;;;;;;4970183;28;20031;-78
2023/05/13 12:51:24;;;;;;;5.38;2.63;;;;;;;;;;4970733;28;20030;-79
2023/05/13 12:53:52;;;;;;;5.63;2.92;;;;;;;;;;4954334;28;20090;-79
2023/05/13 12:56:21;;;;;;;5.57;3.22;;;;;;;;;;4972182;28;20027;-79
2023/05/13 12:58:47;;;;;;;3.67;2.20;;;;;;;;;;4973334;28;20106;-80
2023/05/13 13:01:13;;;;;;;8.30;2.65;;;;;;;;;;4966433;28;20436;-80
2023/05/13 13:03:39;;;;;;;4.15;2.60;;;;;;;;;;4959399;28;20118;-80
2023/05/13 13:06:05;;;;;;;11.60;3.08;;;;;;;;;;4967263;28;20027;-79
2023/05/13 13:08:34;;;;;;;4.70;2.65;;;;;;;;;;4969533;28;20468;-80
2023/05/13 13:11:00;;;;;;;5.57;2.50;;;;;;;;;;4974560;28;20039;-79
2023/05/13 13:13:26;;;;;;;15.35;2.60;;;;;;;;;;4969205;28;20073;-77
2023/05/13 13:15:52;;;;;;;2.97;2.00;;;;;;;;;;4970902;28;20035;-80
2023/05/13 13:18:18;;;;;;;8.52;2.72;;;;;;;;;;4969780;28;20045;-79
2023/05/13 13:20:44;;;;;;;7.63;2.33;;;;;;;;;;4960164;28;20067;-80
2023/05/13 13:23:10;;;;;;;4.95;2.65;;;;;;;;;;4954333;28;20028;-80
2023/05/13 13:25:37;;;;;;;10.43;2.90;;;;;;;;;;4968212;28;20034;-80
2023/05/13 13:28:03;;;;;;;3.22;2.50;;;;;;;;;;4968974;28;20034;-80
2023/05/13 13:30:29;;;;;;;4.82;1.95;;;;;;;;;;4956007;28;20508;-79
2023/05/13 13:32:55;;;;;;;2.17;1.85;;;;;;;;;;4960767;28;20031;-79
2023/05/13 13:35:21;;;;;;;3.53;2.00;;;;;;;;;;4960030;28;20023;-79
2023/05/13 13:37:47;;;;;;;7.65;2.63;;;;;;;;;;4957050;28;20031;-80
2023/05/13 13:40:13;;;;;;;3.20;1.58;;;;;;;;;;4969530;28;20045;-80
2023/05/13 13:42:39;;;;;;;4.88;1.92;;;;;;;;;;4955332;28;20045;-80
2023/05/13 13:45:05;;;;;;;6.72;2.58;;;;;;;;;;4954365;28;20047;-80
2023/05/13 13:47:32;;;;;;;2.97;2.25;;;;;;;;;;4956007;28;20572;-79
2023/05/13 13:49:58;;;;;;;5.70;3.17;;;;;;;;;;4969490;28;20027;-80
2023/05/13 13:52:26;;;;;;;2.90;2.42;;;;;;;;;;4959398;28;20085;-80
2023/05/13 13:54:52;;;;;;;3.75;2.17;;;;;;;;;;4957040;28;20062;-81
2023/05/13 13:57:18;;;;;;;3.88;2.03;;;;;;;;;;4967061;28;20510;-81
2023/05/13 13:59:44;;;;;;;4.70;2.05;;;;;;;;;;4967429;28;20069;-81
2023/05/13 14:02:10;;;;;;;2.88;2.03;;;;;;;;;;4955263;28;20031;-80
2023/05/13 14:04:36;;;;;;;4.38;2.00;;;;;;;;;;4961596;28;20031;-81
2023/05/13 14:07:02;;;;;;;3.30;1.85;;;;;;;;;;4955388;28;21791;-80
2023/05/13 14:09:28;;;;;;;4.38;1.80;;;;;;;;;;4969243;28;20133;-80
2023/05/13 14:11:54;;;;;;;2.70;1.77;;;;;;;;;;4957475;28;20031;-79
2023/05/13 14:14:20;;;;;;;4.28;1.95;;;;;;;;;;4968157;28;20042;-81
2023/05/13 14:16:46;;;;;;;2.63;1.77;;;;;;;;;;4973842;28;20090;-79
2023/05/13 14:19:12;;;;;;;5.93;2.20;;;;;;;;;;4958314;28;20030;-80
2023/05/13 14:21:38;;;;;;;3.20;2.40;;;;;;;;;;4972354;28;20483;-81
2023/05/13 14:24:07;;;;;;;6.55;2.42;;;;;;;;;;4972357;28;20039;-81
2023/05/13 14:26:33;;;;;;;3.35;2.22;;;;;;;;;;4970979;28;20086;-80